sensor_id;sensor_type;location;lat;lon;timestamp;P1;durP1;ratioP1;P2;durP2;ratioP2
19854;SDS011;10088;47.946;2.532;2024-01-07T00:00:29;3.83;;;2.40;;
19854;SDS011;10088;47.946;2.532;2024-01-07T00:02:55;4.93;;;2.33;;
19854;SDS011;10088;47.946;2.532;2024-01-07T00:05:20;4.67;;;2.53;;
19854;SDS011;10088;47.946;2.532;2024-01-07T00:07:45;6.70;;;2.67;;
19854;SDS011;10088;47.946;2.532;2024-01-07T00:10:11;3.47;;;2.40;;
19854;SDS011;10088;47.946;2.532;2024-01-07T00:12:36;5.73;;;2.27;;
19854;SDS011;10088;47.946;2.532;2024-01-07T00:15:01;5.47;;;2.60;;
19854;SDS011;10088;47.946;2.532;2024-01-07T00:17:26;3.57;;;2.30;;
19854;SDS011;10088;47.946;2.532;2024-01-07T00:19:52;2.50;;;1.80;;
19854;SDS011;10088;47.946;2.532;2024-01-07T00:22:17;4.93;;;1.90;;
19854;SDS011;10088;47.946;2.532;2024-01-07T00:24:43;4.50;;;2.50;;
19854;SDS011;10088;47.946;2.532;2024-01-07T00:27:08;5.60;;;2.00;;
19854;SDS011;10088;47.946;2.532;2024-01-07T00:29:33;5.33;;;2.40;;
19854;SDS011;10088;47.946;2.532;2024-01-07T00:32:00;4.63;;;2.23;;
19854;SDS011;10088;47.946;2.532;2024-01-07T00:34:26;6.33;;;2.27;;
19854;SDS011;10088;47.946;2.532;2024-01-07T00:36:51;2.27;;;1.90;;
19854;SDS011;10088;47.946;2.532;2024-01-07T00:39:16;5.17;;;1.90;;
19854;SDS011;10088;47.946;2.532;2024-01-07T00:41:41;4.83;;;1.90;;
19854;SDS011;10088;47.946;2.532;2024-01-07T00:44:07;7.40;;;1.70;;
19854;SDS011;10088;47.946;2.532;2024-01-07T00:46:32;2.53;;;1.40;;
19854;SDS011;10088;47.946;2.532;2024-01-07T00:48:57;1.60;;;0.93;;
19854;SDS011;10088;47.946;2.532;2024-01-07T00:51:22;2.20;;;1.27;;
19854;SDS011;10088;47.946;2.532;2024-01-07T00:53:48;2.90;;;1.13;;
19854;SDS011;10088;47.946;2.532;2024-01-07T00:56:13;2.47;;;1.13;;
19854;SDS011;10088;47.946;2.532;2024-01-07T00:58:38;1.93;;;0.83;;
19854;SDS011;10088;47.946;2.532;2024-01-07T01:01:03;2.37;;;1.03;;
19854;SDS011;10088;47.946;2.532;2024-01-07T01:03:29;4.23;;;1.10;;
19854;SDS011;10088;47.946;2.532;2024-01-07T01:05:54;1.33;;;1.00;;
19854;SDS011;10088;47.946;2.532;2024-01-07T01:08:19;1.10;;;1.00;;
19854;SDS011;10088;47.946;2.532;2024-01-07T01:10:45;1.43;;;1.10;;
19854;SDS011;10088;47.946;2.532;2024-01-07T01:13:10;3.30;;;1.10;;
19854;SDS011;10088;47.946;2.532;2024-01-07T01:15:35;2.40;;;1.03;;
19854;SDS011;10088;47.946;2.532;2024-01-07T01:18:01;1.67;;;0.90;;
19854;SDS011;10088;47.946;2.532;2024-01-07T01:20:26;1.73;;;0.80;;
19854;SDS011;10088;47.946;2.532;2024-01-07T01:22:51;0.87;;;0.87;;
19854;SDS011;10088;47.946;2.532;2024-01-07T01:25:16;5.20;;;1.67;;
19854;SDS011;10088;47.946;2.532;2024-01-07T01:27:42;3.33;;;1.40;;
19854;SDS011;10088;47.946;2.532;2024-01-07T01:30:07;1.87;;;1.57;;
19854;SDS011;10088;47.946;2.532;2024-01-07T01:32:32;3.90;;;1.50;;
19854;SDS011;10088;47.946;2.532;2024-01-07T01:34:58;2.80;;;1.57;;
19854;SDS011;10088;47.946;2.532;2024-01-07T01:37:23;2.50;;;1.23;;
19854;SDS011;10088;47.946;2.532;2024-01-07T01:39:48;1.57;;;1.30;;
19854;SDS011;10088;47.946;2.532;2024-01-07T01:42:14;3.23;;;1.57;;
19854;SDS011;10088;47.946;2.532;2024-01-07T01:44:39;1.40;;;1.07;;
19854;SDS011;10088;47.946;2.532;2024-01-07T01:47:05;2.20;;;1.30;;
19854;SDS011;10088;47.946;2.532;2024-01-07T01:49:30;4.20;;;1.40;;
19854;SDS011;10088;47.946;2.532;2024-01-07T01:51:56;3.47;;;1.50;;
19854;SDS011;10088;47.946;2.532;2024-01-07T01:54:21;4.07;;;1.73;;
19854;SDS011;10088;47.946;2.532;2024-01-07T01:56:47;2.50;;;1.77;;
19854;SDS011;10088;47.946;2.532;2024-01-07T01:59:14;4.50;;;1.70;;
19854;SDS011;10088;47.946;2.532;2024-01-07T02:01:40;4.30;;;1.97;;
19854;SDS011;10088;47.946;2.532;2024-01-07T02:04:05;2.80;;;1.80;;
19854;SDS011;10088;47.946;2.532;2024-01-07T02:06:31;6.07;;;2.33;;
19854;SDS011;10088;47.946;2.532;2024-01-07T02:08:56;4.83;;;2.00;;
19854;SDS011;10088;47.946;2.532;2024-01-07T02:11:22;3.70;;;1.97;;
19854;SDS011;10088;47.946;2.532;2024-01-07T02:13:47;3.93;;;2.03;;
19854;SDS011;10088;47.946;2.532;2024-01-07T02:16:13;3.37;;;1.77;;
19854;SDS011;10088;47.946;2.532;2024-01-07T02:18:42;4.10;;;2.10;;
19854;SDS011;10088;47.946;2.532;2024-01-07T02:21:09;3.60;;;1.57;;
19854;SDS011;10088;47.946;2.532;2024-01-07T02:23:34;4.87;;;1.80;;
19854;SDS011;10088;47.946;2.532;2024-01-07T02:25:59;2.57;;;1.93;;
19854;SDS011;10088;47.946;2.532;2024-01-07T02:28:24;2.40;;;1.77;;
19854;SDS011;10088;47.946;2.532;2024-01-07T02:30:50;4.07;;;1.87;;
19854;SDS011;10088;47.946;2.532;2024-01-07T02:33:15;4.07;;;1.90;;
19854;SDS011;10088;47.946;2.532;2024-01-07T02:35:40;5.50;;;2.27;;
19854;SDS011;10088;47.946;2.532;2024-01-07T02:38:06;4.60;;;1.80;;
19854;SDS011;10088;47.946;2.532;2024-01-07T02:40:31;3.60;;;1.97;;
19854;SDS011;10088;47.946;2.532;2024-01-07T02:42:56;3.40;;;1.70;;
19854;SDS011;10088;47.946;2.532;2024-01-07T02:45:22;3.47;;;1.83;;
19854;SDS011;10088;47.946;2.532;2024-01-07T02:47:47;3.47;;;1.60;;
19854;SDS011;10088;47.946;2.532;2024-01-07T02:50:12;2.73;;;1.60;;
19854;SDS011;10088;47.946;2.532;2024-01-07T02:52:38;4.97;;;1.70;;
19854;SDS011;10088;47.946;2.532;2024-01-07T02:55:03;4.03;;;2.70;;
19854;SDS011;10088;47.946;2.532;2024-01-07T02:57:28;3.50;;;2.00;;
19854;SDS011;10088;47.946;2.532;2024-01-07T02:59:54;3.03;;;1.90;;
19854;SDS011;10088;47.946;2.532;2024-01-07T03:02:19;3.30;;;1.80;;
19854;SDS011;10088;47.946;2.532;2024-01-07T03:04:44;2.77;;;1.47;;
19854;SDS011;10088;47.946;2.532;2024-01-07T03:07:09;3.00;;;1.60;;
19854;SDS011;10088;47.946;2.532;2024-01-07T03:09:35;5.20;;;1.97;;
19854;SDS011;10088;47.946;2.532;2024-01-07T03:12:00;5.77;;;1.80;;
19854;SDS011;10088;47.946;2.532;2024-01-07T03:14:25;3.73;;;1.70;;
19854;SDS011;10088;47.946;2.532;2024-01-07T03:16:51;5.10;;;1.40;;
19854;SDS011;10088;47.946;2.532;2024-01-07T03:19:17;3.17;;;1.73;;
19854;SDS011;10088;47.946;2.532;2024-01-07T03:21:42;5.13;;;1.70;;
19854;SDS011;10088;47.946;2.532;2024-01-07T03:24:07;3.40;;;1.60;;
19854;SDS011;10088;47.946;2.532;2024-01-07T03:26:33;3.40;;;1.83;;
19854;SDS011;10088;47.946;2.532;2024-01-07T03:28:58;5.57;;;1.73;;
19854;SDS011;10088;47.946;2.532;2024-01-07T03:31:25;3.20;;;1.60;;
19854;SDS011;10088;47.946;2.532;2024-01-07T03:33:50;2.17;;;1.60;;
19854;SDS011;10088;47.946;2.532;2024-01-07T03:36:15;3.70;;;1.57;;
19854;SDS011;10088;47.946;2.532;2024-01-07T03:38:41;6.60;;;1.40;;
19854;SDS011;10088;47.946;2.532;2024-01-07T03:41:06;1.83;;;1.30;;
19854;SDS011;10088;47.946;2.532;2024-01-07T03:43:31;7.27;;;1.43;;
19854;SDS011;10088;47.946;2.532;2024-01-07T03:45:57;3.47;;;1.90;;
19854;SDS011;10088;47.946;2.532;2024-01-07T03:48:22;2.83;;;1.90;;
19854;SDS011;10088;47.946;2.532;2024-01-07T03:50:47;4.77;;;1.40;;
19854;SDS011;10088;47.946;2.532;2024-01-07T03:53:13;2.43;;;1.10;;
19854;SDS011;10088;47.946;2.532;2024-01-07T03:55:38;1.60;;;1.40;;
19854;SDS011;10088;47.946;2.532;2024-01-07T03:58:04;4.30;;;1.30;;
19854;SDS011;10088;47.946;2.532;2024-01-07T04:00:30;2.97;;;1.57;;
19854;SDS011;10088;47.946;2.532;2024-01-07T04:02:55;2.23;;;1.60;;
19854;SDS011;10088;47.946;2.532;2024-01-07T04:05:20;2.70;;;1.50;;
19854;SDS011;10088;47.946;2.532;2024-01-07T04:07:45;4.00;;;1.83;;
19854;SDS011;10088;47.946;2.532;2024-01-07T04:10:11;1.83;;;1.27;;
19854;SDS011;10088;47.946;2.532;2024-01-07T04:12:36;2.73;;;1.93;;
19854;SDS011;10088;47.946;2.532;2024-01-07T04:15:01;3.07;;;1.47;;
19854;SDS011;10088;47.946;2.532;2024-01-07T04:17:26;5.90;;;1.50;;
19854;SDS011;10088;47.946;2.532;2024-01-07T04:19:52;4.63;;;1.73;;
19854;SDS011;10088;47.946;2.532;2024-01-07T04:22:17;3.93;;;1.80;;
19854;SDS011;10088;47.946;2.532;2024-01-07T04:24:42;2.37;;;1.60;;
19854;SDS011;10088;47.946;2.532;2024-01-07T04:27:08;2.50;;;1.67;;
19854;SDS011;10088;47.946;2.532;2024-01-07T04:29:33;5.83;;;1.77;;
19854;SDS011;10088;47.946;2.532;2024-01-07T04:31:58;5.67;;;2.03;;
19854;SDS011;10088;47.946;2.532;2024-01-07T04:34:23;3.00;;;1.40;;
19854;SDS011;10088;47.946;2.532;2024-01-07T04:36:49;5.00;;;1.80;;
19854;SDS011;10088;47.946;2.532;2024-01-07T04:39:15;3.27;;;1.63;;
19854;SDS011;10088;47.946;2.532;2024-01-07T04:41:40;3.77;;;1.87;;
19854;SDS011;10088;47.946;2.532;2024-01-07T04:44:05;2.33;;;1.27;;
19854;SDS011;10088;47.946;2.532;2024-01-07T04:46:33;1.87;;;1.50;;
19854;SDS011;10088;47.946;2.532;2024-01-07T04:48:58;6.57;;;1.67;;
19854;SDS011;10088;47.946;2.532;2024-01-07T04:51:23;2.00;;;1.40;;
19854;SDS011;10088;47.946;2.532;2024-01-07T04:53:49;4.10;;;1.57;;
19854;SDS011;10088;47.946;2.532;2024-01-07T04:56:14;4.87;;;1.47;;
19854;SDS011;10088;47.946;2.532;2024-01-07T04:58:39;2.23;;;1.30;;
19854;SDS011;10088;47.946;2.532;2024-01-07T05:01:05;2.70;;;1.30;;
19854;SDS011;10088;47.946;2.532;2024-01-07T05:03:30;2.37;;;1.40;;
19854;SDS011;10088;47.946;2.532;2024-01-07T05:05:55;2.90;;;1.73;;
19854;SDS011;10088;47.946;2.532;2024-01-07T05:08:20;2.07;;;1.30;;
19854;SDS011;10088;47.946;2.532;2024-01-07T05:10:46;2.33;;;1.20;;
19854;SDS011;10088;47.946;2.532;2024-01-07T05:13:11;3.13;;;1.57;;
19854;SDS011;10088;47.946;2.532;2024-01-07T05:15:36;3.63;;;1.50;;
19854;SDS011;10088;47.946;2.532;2024-01-07T05:18:02;2.37;;;1.47;;
19854;SDS011;10088;47.946;2.532;2024-01-07T05:20:27;3.80;;;1.27;;
19854;SDS011;10088;47.946;2.532;2024-01-07T05:22:52;1.83;;;1.40;;
19854;SDS011;10088;47.946;2.532;2024-01-07T05:25:18;2.37;;;1.17;;
19854;SDS011;10088;47.946;2.532;2024-01-07T05:27:43;3.53;;;1.43;;
19854;SDS011;10088;47.946;2.532;2024-01-07T05:30:08;2.00;;;1.27;;
19854;SDS011;10088;47.946;2.532;2024-01-07T05:32:33;1.40;;;1.00;;
19854;SDS011;10088;47.946;2.532;2024-01-07T05:34:59;5.87;;;1.63;;
19854;SDS011;10088;47.946;2.532;2024-01-07T05:37:24;4.53;;;1.33;;
19854;SDS011;10088;47.946;2.532;2024-01-07T05:39:49;3.40;;;1.13;;
19854;SDS011;10088;47.946;2.532;2024-01-07T05:42:15;3.03;;;1.50;;
19854;SDS011;10088;47.946;2.532;2024-01-07T05:44:40;1.60;;;0.80;;
19854;SDS011;10088;47.946;2.532;2024-01-07T05:47:05;11.00;;;2.10;;
19854;SDS011;10088;47.946;2.532;2024-01-07T05:49:31;1.60;;;1.10;;
19854;SDS011;10088;47.946;2.532;2024-01-07T05:51:56;3.80;;;1.43;;
19854;SDS011;10088;47.946;2.532;2024-01-07T05:54:21;5.23;;;1.27;;
19854;SDS011;10088;47.946;2.532;2024-01-07T05:56:47;4.30;;;1.40;;
19854;SDS011;10088;47.946;2.532;2024-01-07T05:59:12;3.57;;;1.10;;
19854;SDS011;10088;47.946;2.532;2024-01-07T06:01:38;3.97;;;1.20;;
19854;SDS011;10088;47.946;2.532;2024-01-07T06:04:03;4.30;;;1.03;;
19854;SDS011;10088;47.946;2.532;2024-01-07T06:06:28;5.20;;;1.23;;
19854;SDS011;10088;47.946;2.532;2024-01-07T06:08:54;5.57;;;1.10;;
19854;SDS011;10088;47.946;2.532;2024-01-07T06:11:19;1.83;;;1.00;;
19854;SDS011;10088;47.946;2.532;2024-01-07T06:13:45;4.77;;;1.33;;
19854;SDS011;10088;47.946;2.532;2024-01-07T06:16:11;2.47;;;1.30;;
19854;SDS011;10088;47.946;2.532;2024-01-07T06:18:36;1.70;;;1.10;;
19854;SDS011;10088;47.946;2.532;2024-01-07T06:21:01;4.17;;;1.70;;
19854;SDS011;10088;47.946;2.532;2024-01-07T06:23:27;5.23;;;1.50;;
19854;SDS011;10088;47.946;2.532;2024-01-07T06:25:52;1.47;;;1.00;;
19854;SDS011;10088;47.946;2.532;2024-01-07T06:28:18;3.80;;;1.17;;
19854;SDS011;10088;47.946;2.532;2024-01-07T06:30:43;3.60;;;1.47;;
19854;SDS011;10088;47.946;2.532;2024-01-07T06:33:08;2.17;;;1.13;;
19854;SDS011;10088;47.946;2.532;2024-01-07T06:35:33;5.13;;;1.00;;
19854;SDS011;10088;47.946;2.532;2024-01-07T06:37:59;4.47;;;1.90;;
19854;SDS011;10088;47.946;2.532;2024-01-07T06:40:24;1.80;;;1.00;;
19854;SDS011;10088;47.946;2.532;2024-01-07T06:42:50;3.70;;;1.10;;
19854;SDS011;10088;47.946;2.532;2024-01-07T06:45:15;3.13;;;0.93;;
19854;SDS011;10088;47.946;2.532;2024-01-07T06:47:41;3.47;;;1.20;;
19854;SDS011;10088;47.946;2.532;2024-01-07T06:50:08;1.90;;;1.37;;
19854;SDS011;10088;47.946;2.532;2024-01-07T06:52:33;4.50;;;1.30;;
19854;SDS011;10088;47.946;2.532;2024-01-07T06:54:59;1.13;;;1.03;;
19854;SDS011;10088;47.946;2.532;2024-01-07T06:57:24;9.67;;;1.73;;
19854;SDS011;10088;47.946;2.532;2024-01-07T06:59:49;7.10;;;1.27;;
19854;SDS011;10088;47.946;2.532;2024-01-07T07:02:14;5.03;;;1.27;;
19854;SDS011;10088;47.946;2.532;2024-01-07T07:04:40;2.83;;;1.13;;
19854;SDS011;10088;47.946;2.532;2024-01-07T07:07:05;6.10;;;1.10;;
19854;SDS011;10088;47.946;2.532;2024-01-07T07:09:30;2.20;;;1.43;;
19854;SDS011;10088;47.946;2.532;2024-01-07T07:11:55;1.53;;;0.80;;
19854;SDS011;10088;47.946;2.532;2024-01-07T07:14:21;1.53;;;1.13;;
19854;SDS011;10088;47.946;2.532;2024-01-07T07:16:46;2.90;;;1.47;;
19854;SDS011;10088;47.946;2.532;2024-01-07T07:19:11;1.80;;;1.00;;
19854;SDS011;10088;47.946;2.532;2024-01-07T07:21:40;3.53;;;1.30;;
19854;SDS011;10088;47.946;2.532;2024-01-07T07:24:06;5.60;;;1.10;;
19854;SDS011;10088;47.946;2.532;2024-01-07T07:26:31;5.33;;;1.10;;
19854;SDS011;10088;47.946;2.532;2024-01-07T07:28:56;2.10;;;1.10;;
19854;SDS011;10088;47.946;2.532;2024-01-07T07:31:22;2.63;;;1.17;;
19854;SDS011;10088;47.946;2.532;2024-01-07T07:33:47;3.47;;;1.20;;
19854;SDS011;10088;47.946;2.532;2024-01-07T07:36:12;3.07;;;1.23;;
19854;SDS011;10088;47.946;2.532;2024-01-07T07:38:38;5.33;;;2.00;;
19854;SDS011;10088;47.946;2.532;2024-01-07T07:41:03;3.67;;;1.27;;
19854;SDS011;10088;47.946;2.532;2024-01-07T07:43:29;6.83;;;1.43;;
19854;SDS011;10088;47.946;2.532;2024-01-07T07:45:54;3.13;;;1.27;;
19854;SDS011;10088;47.946;2.532;2024-01-07T07:48:20;3.87;;;1.67;;
19854;SDS011;10088;47.946;2.532;2024-01-07T07:50:45;2.13;;;1.30;;
19854;SDS011;10088;47.946;2.532;2024-01-07T07:53:10;2.60;;;2.07;;
19854;SDS011;10088;47.946;2.532;2024-01-07T07:55:36;11.17;;;1.50;;
19854;SDS011;10088;47.946;2.532;2024-01-07T07:58:01;2.60;;;1.30;;
19854;SDS011;10088;47.946;2.532;2024-01-07T08:00:27;4.77;;;1.70;;
19854;SDS011;10088;47.946;2.532;2024-01-07T08:02:53;3.03;;;1.43;;
19854;SDS011;10088;47.946;2.532;2024-01-07T08:05:18;4.37;;;1.63;;
19854;SDS011;10088;47.946;2.532;2024-01-07T08:07:43;3.27;;;1.47;;
19854;SDS011;10088;47.946;2.532;2024-01-07T08:10:09;2.63;;;1.10;;
19854;SDS011;10088;47.946;2.532;2024-01-07T08:12:34;6.23;;;1.47;;
19854;SDS011;10088;47.946;2.532;2024-01-07T08:15:00;1.40;;;1.10;;
19854;SDS011;10088;47.946;2.532;2024-01-07T08:17:25;6.07;;;1.30;;
19854;SDS011;10088;47.946;2.532;2024-01-07T08:19:50;3.30;;;1.20;;
19854;SDS011;10088;47.946;2.532;2024-01-07T08:22:16;3.93;;;1.50;;
19854;SDS011;10088;47.946;2.532;2024-01-07T08:24:41;5.80;;;1.50;;
19854;SDS011;10088;47.946;2.532;2024-01-07T08:27:06;4.87;;;1.30;;
19854;SDS011;10088;47.946;2.532;2024-01-07T08:29:32;4.87;;;1.27;;
19854;SDS011;10088;47.946;2.532;2024-01-07T08:31:57;1.90;;;1.30;;
19854;SDS011;10088;47.946;2.532;2024-01-07T08:34:22;3.17;;;1.33;;
19854;SDS011;10088;47.946;2.532;2024-01-07T08:36:48;6.57;;;1.40;;
19854;SDS011;10088;47.946;2.532;2024-01-07T08:39:14;4.57;;;1.33;;
19854;SDS011;10088;47.946;2.532;2024-01-07T08:41:39;7.77;;;1.50;;
19854;SDS011;10088;47.946;2.532;2024-01-07T08:44:05;3.67;;;1.27;;
19854;SDS011;10088;47.946;2.532;2024-01-07T08:46:30;1.57;;;1.10;;
19854;SDS011;10088;47.946;2.532;2024-01-07T08:48:55;3.70;;;1.27;;
19854;SDS011;10088;47.946;2.532;2024-01-07T08:51:21;5.13;;;1.77;;
19854;SDS011;10088;47.946;2.532;2024-01-07T08:53:46;2.97;;;1.60;;
19854;SDS011;10088;47.946;2.532;2024-01-07T08:56:12;2.80;;;1.33;;
19854;SDS011;10088;47.946;2.532;2024-01-07T08:58:37;4.17;;;1.90;;
19854;SDS011;10088;47.946;2.532;2024-01-07T09:01:02;6.07;;;1.10;;
19854;SDS011;10088;47.946;2.532;2024-01-07T09:03:28;5.03;;;1.20;;
19854;SDS011;10088;47.946;2.532;2024-01-07T09:05:53;6.07;;;1.30;;
19854;SDS011;10088;47.946;2.532;2024-01-07T09:08:18;4.70;;;1.27;;
19854;SDS011;10088;47.946;2.532;2024-01-07T09:10:44;3.20;;;1.30;;
19854;SDS011;10088;47.946;2.532;2024-01-07T09:13:09;7.57;;;1.70;;
19854;SDS011;10088;47.946;2.532;2024-01-07T09:15:34;6.07;;;1.40;;
19854;SDS011;10088;47.946;2.532;2024-01-07T09:17:59;2.57;;;1.20;;
19854;SDS011;10088;47.946;2.532;2024-01-07T09:20:25;5.33;;;1.40;;
19854;SDS011;10088;47.946;2.532;2024-01-07T09:22:50;2.63;;;1.23;;
19854;SDS011;10088;47.946;2.532;2024-01-07T09:25:15;4.00;;;1.70;;
19854;SDS011;10088;47.946;2.532;2024-01-07T09:27:41;8.37;;;1.57;;
19854;SDS011;10088;47.946;2.532;2024-01-07T09:30:08;3.17;;;1.13;;
19854;SDS011;10088;47.946;2.532;2024-01-07T09:32:35;3.57;;;1.50;;
19854;SDS011;10088;47.946;2.532;2024-01-07T09:35:01;4.90;;;1.20;;
19854;SDS011;10088;47.946;2.532;2024-01-07T09:37:26;2.00;;;1.20;;
19854;SDS011;10088;47.946;2.532;2024-01-07T09:39:51;1.53;;;1.30;;
19854;SDS011;10088;47.946;2.532;2024-01-07T09:42:17;6.20;;;1.53;;
19854;SDS011;10088;47.946;2.532;2024-01-07T09:44:43;4.53;;;1.37;;
19854;SDS011;10088;47.946;2.532;2024-01-07T09:47:15;5.07;;;1.50;;
19854;SDS011;10088;47.946;2.532;2024-01-07T09:49:40;5.17;;;1.40;;
19854;SDS011;10088;47.946;2.532;2024-01-07T09:52:07;6.70;;;1.63;;
19854;SDS011;10088;47.946;2.532;2024-01-07T09:54:33;1.80;;;1.37;;
19854;SDS011;10088;47.946;2.532;2024-01-07T09:57:03;5.20;;;1.23;;
19854;SDS011;10088;47.946;2.532;2024-01-07T09:59:29;3.97;;;1.43;;
19854;SDS011;10088;47.946;2.532;2024-01-07T10:01:54;4.77;;;1.90;;
19854;SDS011;10088;47.946;2.532;2024-01-07T10:04:20;4.83;;;1.40;;
19854;SDS011;10088;47.946;2.532;2024-01-07T10:06:45;4.20;;;1.30;;
19854;SDS011;10088;47.946;2.532;2024-01-07T10:09:13;2.60;;;1.40;;
19854;SDS011;10088;47.946;2.532;2024-01-07T10:11:39;2.10;;;1.30;;
19854;SDS011;10088;47.946;2.532;2024-01-07T10:14:05;2.43;;;1.60;;
19854;SDS011;10088;47.946;2.532;2024-01-07T10:16:30;2.93;;;1.20;;
19854;SDS011;10088;47.946;2.532;2024-01-07T10:18:57;4.70;;;1.67;;
19854;SDS011;10088;47.946;2.532;2024-01-07T10:21:37;5.23;;;1.40;;
19854;SDS011;10088;47.946;2.532;2024-01-07T10:24:21;3.80;;;1.70;;
19854;SDS011;10088;47.946;2.532;2024-01-07T10:26:51;2.67;;;1.53;;
19854;SDS011;10088;47.946;2.532;2024-01-07T10:29:20;2.93;;;1.70;;
19854;SDS011;10088;47.946;2.532;2024-01-07T10:31:52;5.03;;;1.40;;
19854;SDS011;10088;47.946;2.532;2024-01-07T10:34:33;3.83;;;2.10;;
19854;SDS011;10088;47.946;2.532;2024-01-07T10:37:27;3.57;;;1.30;;
19854;SDS011;10088;47.946;2.532;2024-01-07T10:40:11;4.57;;;1.73;;
19854;SDS011;10088;47.946;2.532;2024-01-07T10:42:55;3.23;;;2.10;;
19854;SDS011;10088;47.946;2.532;2024-01-07T10:45:32;6.07;;;2.53;;
19854;SDS011;10088;47.946;2.532;2024-01-07T10:48:12;2.90;;;2.03;;
19854;SDS011;10088;47.946;2.532;2024-01-07T10:50:51;6.33;;;2.47;;
19854;SDS011;10088;47.946;2.532;2024-01-07T10:53:34;2.27;;;1.77;;
19854;SDS011;10088;47.946;2.532;2024-01-07T10:56:14;6.03;;;2.37;;
19854;SDS011;10088;47.946;2.532;2024-01-07T10:58:41;3.83;;;2.13;;
19854;SDS011;10088;47.946;2.532;2024-01-07T11:01:31;3.80;;;2.27;;
19854;SDS011;10088;47.946;2.532;2024-01-07T11:04:16;2.47;;;1.83;;
19854;SDS011;10088;47.946;2.532;2024-01-07T11:09:39;4.50;;;2.53;;
19854;SDS011;10088;47.946;2.532;2024-01-07T11:12:31;5.47;;;3.13;;
19854;SDS011;10088;47.946;2.532;2024-01-07T11:18:23;3.97;;;2.37;;
19854;SDS011;10088;47.946;2.532;2024-01-07T11:21:20;3.17;;;2.40;;
19854;SDS011;10088;47.946;2.532;2024-01-07T11:23:52;6.20;;;2.80;;
19854;SDS011;10088;47.946;2.532;2024-01-07T11:26:35;4.43;;;2.07;;
19854;SDS011;10088;47.946;2.532;2024-01-07T11:29:08;6.23;;;2.80;;
19854;SDS011;10088;47.946;2.532;2024-01-07T11:31:43;3.30;;;2.70;;
19854;SDS011;10088;47.946;2.532;2024-01-07T11:37:19;4.67;;;2.27;;
19854;SDS011;10088;47.946;2.532;2024-01-07T11:40:05;3.07;;;2.10;;
19854;SDS011;10088;47.946;2.532;2024-01-07T11:42:49;5.10;;;2.53;;
19854;SDS011;10088;47.946;2.532;2024-01-07T11:45:33;3.23;;;2.47;;
19854;SDS011;10088;47.946;2.532;2024-01-07T11:48:04;5.37;;;2.60;;
19854;SDS011;10088;47.946;2.532;2024-01-07T11:50:52;5.57;;;2.67;;
19854;SDS011;10088;47.946;2.532;2024-01-07T11:53:25;3.87;;;2.70;;
19854;SDS011;10088;47.946;2.532;2024-01-07T11:56:08;6.63;;;2.60;;
19854;SDS011;10088;47.946;2.532;2024-01-07T11:58:51;4.63;;;2.97;;
19854;SDS011;10088;47.946;2.532;2024-01-07T12:01:19;3.83;;;2.40;;
19854;SDS011;10088;47.946;2.532;2024-01-07T12:03:56;5.90;;;2.70;;
19854;SDS011;10088;47.946;2.532;2024-01-07T12:06:39;5.23;;;2.77;;
19854;SDS011;10088;47.946;2.532;2024-01-07T12:09:15;4.47;;;2.90;;
19854;SDS011;10088;47.946;2.532;2024-01-07T12:11:53;5.07;;;2.70;;
19854;SDS011;10088;47.946;2.532;2024-01-07T12:14:40;5.43;;;2.80;;
19854;SDS011;10088;47.946;2.532;2024-01-07T12:17:21;4.00;;;2.47;;
19854;SDS011;10088;47.946;2.532;2024-01-07T12:19:51;5.80;;;3.73;;
19854;SDS011;10088;47.946;2.532;2024-01-07T12:22:29;3.63;;;3.00;;
19854;SDS011;10088;47.946;2.532;2024-01-07T12:25:32;5.23;;;3.27;;
19854;SDS011;10088;47.946;2.532;2024-01-07T12:28:08;5.77;;;3.03;;
19854;SDS011;10088;47.946;2.532;2024-01-07T12:30:58;5.23;;;3.20;;
19854;SDS011;10088;47.946;2.532;2024-01-07T12:33:47;7.13;;;3.10;;
19854;SDS011;10088;47.946;2.532;2024-01-07T12:36:30;5.27;;;3.77;;
19854;SDS011;10088;47.946;2.532;2024-01-07T12:39:32;3.73;;;3.00;;
19854;SDS011;10088;47.946;2.532;2024-01-07T12:42:15;3.73;;;3.07;;
19854;SDS011;10088;47.946;2.532;2024-01-07T12:44:50;6.70;;;3.60;;
19854;SDS011;10088;47.946;2.532;2024-01-07T12:47:17;7.10;;;3.63;;
19854;SDS011;10088;47.946;2.532;2024-01-07T12:49:54;6.37;;;4.00;;
19854;SDS011;10088;47.946;2.532;2024-01-07T12:52:24;7.63;;;3.90;;
19854;SDS011;10088;47.946;2.532;2024-01-07T12:55:04;5.63;;;3.80;;
19854;SDS011;10088;47.946;2.532;2024-01-07T12:57:40;6.07;;;4.20;;
19854;SDS011;10088;47.946;2.532;2024-01-07T13:00:16;4.90;;;3.80;;
19854;SDS011;10088;47.946;2.532;2024-01-07T13:03:18;6.20;;;4.00;;
19854;SDS011;10088;47.946;2.532;2024-01-07T13:05:55;5.83;;;4.40;;
19854;SDS011;10088;47.946;2.532;2024-01-07T13:08:34;5.40;;;3.60;;
19854;SDS011;10088;47.946;2.532;2024-01-07T13:11:17;8.10;;;5.03;;
19854;SDS011;10088;47.946;2.532;2024-01-07T13:13:47;7.07;;;5.10;;
19854;SDS011;10088;47.946;2.532;2024-01-07T13:16:34;6.87;;;4.77;;
19854;SDS011;10088;47.946;2.532;2024-01-07T13:19:13;8.53;;;5.40;;
19854;SDS011;10088;47.946;2.532;2024-01-07T13:21:51;9.27;;;5.33;;
19854;SDS011;10088;47.946;2.532;2024-01-07T13:24:42;7.30;;;5.40;;
19854;SDS011;10088;47.946;2.532;2024-01-07T13:27:16;8.73;;;5.20;;
19854;SDS011;10088;47.946;2.532;2024-01-07T13:29:56;8.83;;;5.40;;
19854;SDS011;10088;47.946;2.532;2024-01-07T13:32:30;12.90;;;6.53;;
19854;SDS011;10088;47.946;2.532;2024-01-07T13:35:25;9.40;;;6.57;;
19854;SDS011;10088;47.946;2.532;2024-01-07T13:37:53;7.93;;;5.93;;
19854;SDS011;10088;47.946;2.532;2024-01-07T13:40:29;9.40;;;6.13;;
19854;SDS011;10088;47.946;2.532;2024-01-07T13:43:06;9.47;;;6.83;;
19854;SDS011;10088;47.946;2.532;2024-01-07T13:45:53;10.10;;;6.53;;
19854;SDS011;10088;47.946;2.532;2024-01-07T13:48:29;10.23;;;6.33;;
19854;SDS011;10088;47.946;2.532;2024-01-07T13:51:19;9.30;;;6.60;;
19854;SDS011;10088;47.946;2.532;2024-01-07T13:53:56;10.87;;;6.87;;
19854;SDS011;10088;47.946;2.532;2024-01-07T13:56:49;9.97;;;6.63;;
19854;SDS011;10088;47.946;2.532;2024-01-07T13:59:20;8.50;;;6.40;;
19854;SDS011;10088;47.946;2.532;2024-01-07T14:01:55;8.57;;;6.47;;
19854;SDS011;10088;47.946;2.532;2024-01-07T14:04:34;10.70;;;7.50;;
19854;SDS011;10088;47.946;2.532;2024-01-07T14:07:18;9.73;;;6.47;;
19854;SDS011;10088;47.946;2.532;2024-01-07T14:09:57;10.43;;;6.73;;
19854;SDS011;10088;47.946;2.532;2024-01-07T14:12:32;8.77;;;6.50;;
19854;SDS011;10088;47.946;2.532;2024-01-07T14:15:16;9.67;;;7.17;;
19854;SDS011;10088;47.946;2.532;2024-01-07T14:17:55;9.10;;;6.83;;
19854;SDS011;10088;47.946;2.532;2024-01-07T14:20:41;9.30;;;6.20;;
19854;SDS011;10088;47.946;2.532;2024-01-07T14:23:38;11.83;;;7.40;;
19854;SDS011;10088;47.946;2.532;2024-01-07T14:26:24;10.30;;;7.23;;
19854;SDS011;10088;47.946;2.532;2024-01-07T14:29:10;11.03;;;8.20;;
19854;SDS011;10088;47.946;2.532;2024-01-07T14:31:52;10.97;;;7.87;;
19854;SDS011;10088;47.946;2.532;2024-01-07T14:34:30;12.90;;;7.80;;
19854;SDS011;10088;47.946;2.532;2024-01-07T14:37:20;12.77;;;8.03;;
19854;SDS011;10088;47.946;2.532;2024-01-07T14:39:45;15.63;;;8.50;;
19854;SDS011;10088;47.946;2.532;2024-01-07T14:42:11;12.13;;;8.30;;
19854;SDS011;10088;47.946;2.532;2024-01-07T14:44:36;11.53;;;8.67;;
19854;SDS011;10088;47.946;2.532;2024-01-07T14:47:01;14.37;;;7.67;;
19854;SDS011;10088;47.946;2.532;2024-01-07T14:51:55;10.70;;;7.60;;
19854;SDS011;10088;47.946;2.532;2024-01-07T14:54:20;12.27;;;8.33;;
19854;SDS011;10088;47.946;2.532;2024-01-07T14:56:46;11.80;;;8.23;;
19854;SDS011;10088;47.946;2.532;2024-01-07T14:59:11;10.23;;;7.87;;
19854;SDS011;10088;47.946;2.532;2024-01-07T15:01:36;13.13;;;8.63;;
19854;SDS011;10088;47.946;2.532;2024-01-07T15:04:01;13.70;;;9.17;;
19854;SDS011;10088;47.946;2.532;2024-01-07T15:06:27;12.93;;;8.23;;
19854;SDS011;10088;47.946;2.532;2024-01-07T15:08:52;15.20;;;9.57;;